sensor_id;sensor_type;location;lat;lon;timestamp;P1;durP1;ratioP1;P2;durP2;ratioP2
63699;SDS011;49845;47.130;142.766;2023-07-13T00:01:45;0.40;;;0.40;;
63699;SDS011;49845;47.130;142.766;2023-07-13T00:04:17;3.25;;;0.50;;
63699;SDS011;49845;47.130;142.766;2023-07-13T00:06:49;0.30;;;0.30;;
63699;SDS011;49845;47.130;142.766;2023-07-13T00:09:19;2.28;;;0.50;;
63699;SDS011;49845;47.130;142.766;2023-07-13T00:11:51;0.47;;;0.40;;
63699;SDS011;49845;47.130;142.766;2023-07-13T00:14:25;0.40;;;0.40;;
63699;SDS011;49845;47.130;142.766;2023-07-13T00:16:57;0.40;;;0.40;;
63699;SDS011;49845;47.130;142.766;2023-07-13T00:19:28;0.55;;;0.40;;
63699;SDS011;49845;47.130;142.766;2023-07-13T00:21:58;2.15;;;0.40;;
63699;SDS011;49845;47.130;142.766;2023-07-13T00:24:29;0.73;;;0.40;;
63699;SDS011;49845;47.130;142.766;2023-07-13T00:26:59;1.75;;;0.50;;
63699;SDS011;49845;47.130;142.766;2023-07-13T00:29:31;1.45;;;0.60;;
63699;SDS011;49845;47.130;142.766;2023-07-13T00:32:02;0.80;;;0.50;;
63699;SDS011;49845;47.130;142.766;2023-07-13T00:34:33;0.40;;;0.40;;
63699;SDS011;49845;47.130;142.766;2023-07-13T00:37:05;1.75;;;0.40;;
63699;SDS011;49845;47.130;142.766;2023-07-13T00:39:36;1.05;;;0.55;;
63699;SDS011;49845;47.130;142.766;2023-07-13T00:42:07;3.92;;;0.57;;
63699;SDS011;49845;47.130;142.766;2023-07-13T00:44:39;0.70;;;0.40;;
63699;SDS011;49845;47.130;142.766;2023-07-13T00:47:09;0.40;;;0.40;;
63699;SDS011;49845;47.130;142.766;2023-07-13T00:49:40;0.45;;;0.40;;
63699;SDS011;49845;47.130;142.766;2023-07-13T00:52:10;0.45;;;0.45;;
63699;SDS011;49845;47.130;142.766;2023-07-13T00:54:41;1.65;;;0.47;;
63699;SDS011;49845;47.130;142.766;2023-07-13T00:57:15;2.25;;;0.57;;
63699;SDS011;49845;47.130;142.766;2023-07-13T00:59:50;1.08;;;0.60;;
63699;SDS011;49845;47.130;142.766;2023-07-13T01:02:26;0.77;;;0.60;;
63699;SDS011;49845;47.130;142.766;2023-07-13T01:04:58;3.92;;;0.50;;
63699;SDS011;49845;47.130;142.766;2023-07-13T01:07:29;0.77;;;0.50;;
63699;SDS011;49845;47.130;142.766;2023-07-13T01:10:00;0.50;;;0.50;;
63699;SDS011;49845;47.130;142.766;2023-07-13T01:12:43;2.17;;;0.80;;
63699;SDS011;49845;47.130;142.766;2023-07-13T01:18:09;0.85;;;0.50;;
63699;SDS011;49845;47.130;142.766;2023-07-13T01:23:18;1.02;;;0.57;;
63699;SDS011;49845;47.130;142.766;2023-07-13T01:25:49;1.50;;;0.52;;
63699;SDS011;49845;47.130;142.766;2023-07-13T01:28:20;1.27;;;0.70;;
63699;SDS011;49845;47.130;142.766;2023-07-13T01:30:54;0.50;;;0.50;;
63699;SDS011;49845;47.130;142.766;2023-07-13T01:33:26;1.33;;;0.63;;
63699;SDS011;49845;47.130;142.766;2023-07-13T01:35:58;1.20;;;0.70;;
63699;SDS011;49845;47.130;142.766;2023-07-13T01:38:30;1.88;;;0.60;;
63699;SDS011;49845;47.130;142.766;2023-07-13T01:41:01;1.50;;;0.70;;
63699;SDS011;49845;47.130;142.766;2023-07-13T01:43:33;1.42;;;0.95;;
63699;SDS011;49845;47.130;142.766;2023-07-13T01:46:03;2.75;;;0.93;;
63699;SDS011;49845;47.130;142.766;2023-07-13T01:48:49;0.70;;;0.70;;
63699;SDS011;49845;47.130;142.766;2023-07-13T01:51:22;2.60;;;0.90;;
63699;SDS011;49845;47.130;142.766;2023-07-13T01:53:53;1.70;;;0.90;;
63699;SDS011;49845;47.130;142.766;2023-07-13T01:56:23;4.35;;;1.40;;
63699;SDS011;49845;47.130;142.766;2023-07-13T01:58:54;1.58;;;0.98;;
63699;SDS011;49845;47.130;142.766;2023-07-13T02:01:24;1.33;;;0.80;;
63699;SDS011;49845;47.130;142.766;2023-07-13T02:03:55;3.35;;;0.70;;
63699;SDS011;49845;47.130;142.766;2023-07-13T02:06:27;0.90;;;0.70;;
63699;SDS011;49845;47.130;142.766;2023-07-13T02:08:58;1.20;;;0.77;;
63699;SDS011;49845;47.130;142.766;2023-07-13T02:11:29;1.25;;;0.73;;
63699;SDS011;49845;47.130;142.766;2023-07-13T02:14:00;0.77;;;0.77;;
63699;SDS011;49845;47.130;142.766;2023-07-13T02:16:30;1.00;;;0.70;;
63699;SDS011;49845;47.130;142.766;2023-07-13T02:19:01;1.23;;;1.00;;
63699;SDS011;49845;47.130;142.766;2023-07-13T02:21:33;1.02;;;0.77;;
63699;SDS011;49845;47.130;142.766;2023-07-13T02:24:04;1.55;;;0.73;;
63699;SDS011;49845;47.130;142.766;2023-07-13T02:26:35;1.48;;;0.80;;
63699;SDS011;49845;47.130;142.766;2023-07-13T02:29:05;2.28;;;0.85;;
63699;SDS011;49845;47.130;142.766;2023-07-13T02:31:36;1.73;;;0.85;;
63699;SDS011;49845;47.130;142.766;2023-07-13T02:34:06;1.42;;;0.77;;
63699;SDS011;49845;47.130;142.766;2023-07-13T02:36:38;1.23;;;0.75;;
63699;SDS011;49845;47.130;142.766;2023-07-13T02:39:09;1.10;;;0.80;;
63699;SDS011;49845;47.130;142.766;2023-07-13T02:41:42;1.10;;;0.85;;
63699;SDS011;49845;47.130;142.766;2023-07-13T02:44:12;0.82;;;0.63;;
63699;SDS011;49845;47.130;142.766;2023-07-13T02:46:43;0.93;;;0.60;;
63699;SDS011;49845;47.130;142.766;2023-07-13T02:49:14;0.65;;;0.60;;
63699;SDS011;49845;47.130;142.766;2023-07-13T02:51:46;0.40;;;0.40;;
63699;SDS011;49845;47.130;142.766;2023-07-13T02:54:16;2.38;;;0.45;;
63699;SDS011;49845;47.130;142.766;2023-07-13T02:56:47;0.47;;;0.47;;
63699;SDS011;49845;47.130;142.766;2023-07-13T02:59:17;1.38;;;0.57;;
63699;SDS011;49845;47.130;142.766;2023-07-13T03:01:48;1.58;;;0.50;;
63699;SDS011;49845;47.130;142.766;2023-07-13T03:04:19;0.32;;;0.32;;
63699;SDS011;49845;47.130;142.766;2023-07-13T03:06:51;1.95;;;0.40;;
63699;SDS011;49845;47.130;142.766;2023-07-13T03:09:25;0.40;;;0.35;;
63699;SDS011;49845;47.130;142.766;2023-07-13T03:11:56;1.05;;;0.50;;
63699;SDS011;49845;47.130;142.766;2023-07-13T03:14:26;0.75;;;0.43;;
63699;SDS011;49845;47.130;142.766;2023-07-13T03:16:57;0.35;;;0.35;;
63699;SDS011;49845;47.130;142.766;2023-07-13T03:19:30;0.70;;;0.55;;
63699;SDS011;49845;47.130;142.766;2023-07-13T03:22:05;0.30;;;0.30;;
63699;SDS011;49845;47.130;142.766;2023-07-13T03:24:37;0.40;;;0.40;;
63699;SDS011;49845;47.130;142.766;2023-07-13T03:27:12;0.40;;;0.40;;
63699;SDS011;49845;47.130;142.766;2023-07-13T03:29:44;1.08;;;0.40;;
63699;SDS011;49845;47.130;142.766;2023-07-13T03:32:16;0.40;;;0.40;;
63699;SDS011;49845;47.130;142.766;2023-07-13T03:34:51;4.53;;;0.93;;
63699;SDS011;49845;47.130;142.766;2023-07-13T03:37:24;2.25;;;0.50;;
63699;SDS011;49845;47.130;142.766;2023-07-13T03:39:55;0.52;;;0.50;;
63699;SDS011;49845;47.130;142.766;2023-07-13T03:42:26;0.52;;;0.47;;
63699;SDS011;49845;47.130;142.766;2023-07-13T03:44:57;0.50;;;0.50;;
63699;SDS011;49845;47.130;142.766;2023-07-13T03:47:29;0.73;;;0.57;;
63699;SDS011;49845;47.130;142.766;2023-07-13T03:50:00;1.38;;;0.50;;
63699;SDS011;49845;47.130;142.766;2023-07-13T03:52:34;1.02;;;0.60;;
63699;SDS011;49845;47.130;142.766;2023-07-13T03:55:06;1.13;;;0.50;;
63699;SDS011;49845;47.130;142.766;2023-07-13T03:57:38;0.65;;;0.52;;
63699;SDS011;49845;47.130;142.766;2023-07-13T04:00:11;1.17;;;0.60;;
63699;SDS011;49845;47.130;142.766;2023-07-13T04:02:45;0.75;;;0.50;;
63699;SDS011;49845;47.130;142.766;2023-07-13T04:05:19;1.52;;;0.60;;
63699;SDS011;49845;47.130;142.766;2023-07-13T04:07:53;1.98;;;0.90;;
63699;SDS011;49845;47.130;142.766;2023-07-13T04:10:24;1.75;;;1.02;;
63699;SDS011;49845;47.130;142.766;2023-07-13T04:12:57;5.22;;;1.10;;
63699;SDS011;49845;47.130;142.766;2023-07-13T04:15:30;1.95;;;0.90;;
63699;SDS011;49845;47.130;142.766;2023-07-13T04:18:02;2.10;;;0.80;;
63699;SDS011;49845;47.130;142.766;2023-07-13T04:20:34;3.50;;;1.08;;
63699;SDS011;49845;47.130;142.766;2023-07-13T04:23:08;2.05;;;0.80;;
63699;SDS011;49845;47.130;142.766;2023-07-13T04:25:43;2.78;;;0.80;;
63699;SDS011;49845;47.130;142.766;2023-07-13T04:28:17;0.95;;;0.60;;
63699;SDS011;49845;47.130;142.766;2023-07-13T04:30:49;1.30;;;0.57;;
63699;SDS011;49845;47.130;142.766;2023-07-13T04:33:22;1.00;;;0.50;;
63699;SDS011;49845;47.130;142.766;2023-07-13T04:35:54;1.00;;;0.40;;
63699;SDS011;49845;47.130;142.766;2023-07-13T04:38:29;2.67;;;0.50;;
63699;SDS011;49845;47.130;142.766;2023-07-13T04:41:04;1.58;;;0.73;;
63699;SDS011;49845;47.130;142.766;2023-07-13T04:43:37;0.57;;;0.40;;
63699;SDS011;49845;47.130;142.766;2023-07-13T04:46:10;1.38;;;0.40;;
63699;SDS011;49845;47.130;142.766;2023-07-13T04:48:45;1.15;;;0.50;;
63699;SDS011;49845;47.130;142.766;2023-07-13T04:51:17;0.70;;;0.47;;
63699;SDS011;49845;47.130;142.766;2023-07-13T04:53:50;1.92;;;0.68;;
63699;SDS011;49845;47.130;142.766;2023-07-13T04:56:27;0.75;;;0.40;;
63699;SDS011;49845;47.130;142.766;2023-07-13T04:58:59;0.60;;;0.30;;
63699;SDS011;49845;47.130;142.766;2023-07-13T05:01:30;1.73;;;0.70;;
63699;SDS011;49845;47.130;142.766;2023-07-13T05:04:02;1.50;;;0.57;;
63699;SDS011;49845;47.130;142.766;2023-07-13T05:06:35;0.45;;;0.40;;
63699;SDS011;49845;47.130;142.766;2023-07-13T05:09:09;0.65;;;0.40;;
63699;SDS011;49845;47.130;142.766;2023-07-13T05:11:42;1.33;;;0.50;;
63699;SDS011;49845;47.130;142.766;2023-07-13T05:14:14;2.75;;;0.65;;
63699;SDS011;49845;47.130;142.766;2023-07-13T05:16:46;1.10;;;0.50;;
63699;SDS011;49845;47.130;142.766;2023-07-13T05:19:18;1.58;;;0.70;;
63699;SDS011;49845;47.130;142.766;2023-07-13T05:21:53;1.15;;;0.60;;
63699;SDS011;49845;47.130;142.766;2023-07-13T05:24:28;1.35;;;0.52;;
63699;SDS011;49845;47.130;142.766;2023-07-13T05:27:02;2.83;;;0.50;;
63699;SDS011;49845;47.130;142.766;2023-07-13T05:29:35;1.42;;;0.70;;
63699;SDS011;49845;47.130;142.766;2023-07-13T05:32:07;1.70;;;0.50;;
63699;SDS011;49845;47.130;142.766;2023-07-13T05:34:39;1.60;;;0.68;;
63699;SDS011;49845;47.130;142.766;2023-07-13T05:37:11;1.77;;;0.57;;
63699;SDS011;49845;47.130;142.766;2023-07-13T05:39:45;0.93;;;0.63;;
63699;SDS011;49845;47.130;142.766;2023-07-13T05:42:18;4.10;;;0.95;;
63699;SDS011;49845;47.130;142.766;2023-07-13T05:44:51;1.65;;;0.55;;
63699;SDS011;49845;47.130;142.766;2023-07-13T05:47:25;2.72;;;0.77;;
63699;SDS011;49845;47.130;142.766;2023-07-13T05:49:58;3.40;;;0.70;;
63699;SDS011;49845;47.130;142.766;2023-07-13T05:52:32;0.80;;;0.60;;
63699;SDS011;49845;47.130;142.766;2023-07-13T05:55:06;2.42;;;0.60;;
63699;SDS011;49845;47.130;142.766;2023-07-13T05:57:39;1.98;;;0.60;;
63699;SDS011;49845;47.130;142.766;2023-07-13T06:00:12;1.30;;;0.70;;
63699;SDS011;49845;47.130;142.766;2023-07-13T06:02:46;1.73;;;0.70;;
63699;SDS011;49845;47.130;142.766;2023-07-13T06:05:17;0.70;;;0.45;;
63699;SDS011;49845;47.130;142.766;2023-07-13T06:07:49;2.47;;;0.50;;
63699;SDS011;49845;47.130;142.766;2023-07-13T06:10:25;1.58;;;0.80;;
63699;SDS011;49845;47.130;142.766;2023-07-13T06:12:57;2.28;;;0.50;;
63699;SDS011;49845;47.130;142.766;2023-07-13T06:15:29;1.25;;;0.60;;
63699;SDS011;49845;47.130;142.766;2023-07-13T06:18:01;0.50;;;0.50;;
63699;SDS011;49845;47.130;142.766;2023-07-13T06:20:33;1.92;;;0.60;;
63699;SDS011;49845;47.130;142.766;2023-07-13T06:23:06;1.95;;;0.60;;
63699;SDS011;49845;47.130;142.766;2023-07-13T06:25:40;0.63;;;0.50;;
63699;SDS011;49845;47.130;142.766;2023-07-13T06:28:13;4.75;;;0.47;;
63699;SDS011;49845;47.130;142.766;2023-07-13T06:30:45;0.73;;;0.40;;
63699;SDS011;49845;47.130;142.766;2023-07-13T06:33:17;0.32;;;0.32;;
63699;SDS011;49845;47.130;142.766;2023-07-13T06:35:52;0.43;;;0.35;;
63699;SDS011;49845;47.130;142.766;2023-07-13T06:38:24;0.40;;;0.40;;
63699;SDS011;49845;47.130;142.766;2023-07-13T06:40:58;0.50;;;0.40;;
63699;SDS011;49845;47.130;142.766;2023-07-13T06:43:31;2.97;;;0.70;;
63699;SDS011;49845;47.130;142.766;2023-07-13T06:46:04;3.08;;;0.45;;
63699;SDS011;49845;47.130;142.766;2023-07-13T06:48:35;2.28;;;0.90;;
63699;SDS011;49845;47.130;142.766;2023-07-13T06:51:06;0.82;;;0.50;;
63699;SDS011;49845;47.130;142.766;2023-07-13T06:53:39;1.75;;;0.68;;
63699;SDS011;49845;47.130;142.766;2023-07-13T06:56:13;2.15;;;0.50;;
63699;SDS011;49845;47.130;142.766;2023-07-13T06:58:45;1.65;;;0.50;;
63699;SDS011;49845;47.130;142.766;2023-07-13T07:01:33;3.00;;;0.50;;
63699;SDS011;49845;47.130;142.766;2023-07-13T07:04:08;1.55;;;0.60;;
63699;SDS011;49845;47.130;142.766;2023-07-13T07:06:41;1.25;;;0.50;;
63699;SDS011;49845;47.130;142.766;2023-07-13T07:09:14;0.60;;;0.60;;
63699;SDS011;49845;47.130;142.766;2023-07-13T07:11:48;1.50;;;0.50;;
63699;SDS011;49845;47.130;142.766;2023-07-13T07:14:30;1.38;;;0.60;;
63699;SDS011;49845;47.130;142.766;2023-07-13T07:17:02;1.08;;;0.63;;
63699;SDS011;49845;47.130;142.766;2023-07-13T07:19:37;2.38;;;0.65;;
63699;SDS011;49845;47.130;142.766;2023-07-13T07:22:10;2.35;;;0.45;;
63699;SDS011;49845;47.130;142.766;2023-07-13T07:24:44;0.40;;;0.40;;
63699;SDS011;49845;47.130;142.766;2023-07-13T07:27:18;0.88;;;0.47;;
63699;SDS011;49845;47.130;142.766;2023-07-13T07:29:55;3.67;;;2.80;;
63699;SDS011;49845;47.130;142.766;2023-07-13T07:32:30;0.50;;;0.50;;
63699;SDS011;49845;47.130;142.766;2023-07-13T07:35:06;1.00;;;0.57;;
63699;SDS011;49845;47.130;142.766;2023-07-13T07:37:37;2.15;;;0.50;;
63699;SDS011;49845;47.130;142.766;2023-07-13T07:40:12;1.95;;;0.50;;
63699;SDS011;49845;47.130;142.766;2023-07-13T07:42:49;1.98;;;0.43;;
63699;SDS011;49845;47.130;142.766;2023-07-13T07:45:20;0.55;;;0.50;;
63699;SDS011;49845;47.130;142.766;2023-07-13T07:47:52;0.55;;;0.40;;
63699;SDS011;49845;47.130;142.766;2023-07-13T07:50:27;0.73;;;0.50;;
63699;SDS011;49845;47.130;142.766;2023-07-13T07:52:59;0.60;;;0.40;;
63699;SDS011;49845;47.130;142.766;2023-07-13T07:55:36;0.68;;;0.50;;
63699;SDS011;49845;47.130;142.766;2023-07-13T07:58:31;0.95;;;0.70;;
63699;SDS011;49845;47.130;142.766;2023-07-13T08:01:06;0.50;;;0.50;;
63699;SDS011;49845;47.130;142.766;2023-07-13T08:03:41;0.57;;;0.40;;
63699;SDS011;49845;47.130;142.766;2023-07-13T08:06:20;0.63;;;0.40;;
63699;SDS011;49845;47.130;142.766;2023-07-13T08:08:55;0.57;;;0.32;;
63699;SDS011;49845;47.130;142.766;2023-07-13T08:11:28;0.50;;;0.40;;
63699;SDS011;49845;47.130;142.766;2023-07-13T08:14:08;0.98;;;0.40;;
63699;SDS011;49845;47.130;142.766;2023-07-13T08:16:40;0.43;;;0.40;;
63699;SDS011;49845;47.130;142.766;2023-07-13T08:19:14;0.47;;;0.43;;
63699;SDS011;49845;47.130;142.766;2023-07-13T08:21:47;0.35;;;0.35;;
63699;SDS011;49845;47.130;142.766;2023-07-13T08:24:23;1.83;;;0.40;;
63699;SDS011;49845;47.130;142.766;2023-07-13T08:26:59;0.40;;;0.40;;
63699;SDS011;49845;47.130;142.766;2023-07-13T08:29:36;0.63;;;0.50;;
63699;SDS011;49845;47.130;142.766;2023-07-13T08:32:10;3.53;;;0.70;;
63699;SDS011;49845;47.130;142.766;2023-07-13T08:34:42;0.73;;;0.50;;
63699;SDS011;49845;47.130;142.766;2023-07-13T08:37:15;0.47;;;0.40;;
63699;SDS011;49845;47.130;142.766;2023-07-13T08:39:47;0.50;;;0.50;;
63699;SDS011;49845;47.130;142.766;2023-07-13T08:42:25;0.82;;;0.60;;
63699;SDS011;49845;47.130;142.766;2023-07-13T08:45:13;0.80;;;0.50;;
63699;SDS011;49845;47.130;142.766;2023-07-13T08:47:53;1.02;;;0.50;;
63699;SDS011;49845;47.130;142.766;2023-07-13T08:50:29;2.38;;;0.50;;
63699;SDS011;49845;47.130;142.766;2023-07-13T08:53:26;3.40;;;0.73;;
63699;SDS011;49845;47.130;142.766;2023-07-13T08:56:05;2.28;;;0.55;;
63699;SDS011;49845;47.130;142.766;2023-07-13T08:58:47;1.65;;;0.80;;
63699;SDS011;49845;47.130;142.766;2023-07-13T09:01:39;0.98;;;0.50;;
63699;SDS011;49845;47.130;142.766;2023-07-13T09:05:26;1.20;;;0.63;;
63699;SDS011;49845;47.130;142.766;2023-07-13T09:08:58;1.23;;;0.70;;
63699;SDS011;49845;47.130;142.766;2023-07-13T09:12:11;5.63;;;0.70;;
63699;SDS011;49845;47.130;142.766;2023-07-13T09:15:46;3.88;;;0.80;;
63699;SDS011;49845;47.130;142.766;2023-07-13T09:19:25;1.15;;;0.70;;
63699;SDS011;49845;47.130;142.766;2023-07-13T09:26:46;2.47;;;0.90;;
63699;SDS011;49845;47.130;142.766;2023-07-13T09:30:21;3.92;;;0.98;;
63699;SDS011;49845;47.130;142.766;2023-07-13T09:33:46;1.10;;;0.90;;
63699;SDS011;49845;47.130;142.766;2023-07-13T09:44:11;2.30;;;1.00;;
63699;SDS011;49845;47.130;142.766;2023-07-13T09:47:38;2.80;;;0.90;;
63699;SDS011;49845;47.130;142.766;2023-07-13T09:51:04;1.10;;;0.65;;
63699;SDS011;49845;47.130;142.766;2023-07-13T09:54:24;1.23;;;0.80;;
63699;SDS011;49845;47.130;142.766;2023-07-13T09:57:30;1.25;;;0.80;;
63699;SDS011;49845;47.130;142.766;2023-07-13T10:00:38;3.30;;;0.93;;
63699;SDS011;49845;47.130;142.766;2023-07-13T10:04:10;0.90;;;0.80;;
63699;SDS011;49845;47.130;142.766;2023-07-13T10:07:39;1.58;;;0.95;;
63699;SDS011;49845;47.130;142.766;2023-07-13T10:14:29;2.63;;;0.95;;
63699;SDS011;49845;47.130;142.766;2023-07-13T10:17:57;2.40;;;0.82;;
63699;SDS011;49845;47.130;142.766;2023-07-13T10:21:23;2.30;;;1.10;;
63699;SDS011;49845;47.130;142.766;2023-07-13T10:24:50;5.28;;;1.33;;
63699;SDS011;49845;47.130;142.766;2023-07-13T10:28:19;2.20;;;1.20;;
63699;SDS011;49845;47.130;142.766;2023-07-13T10:35:34;2.45;;;1.35;;
63699;SDS011;49845;47.130;142.766;2023-07-13T10:39:26;4.88;;;1.10;;
63699;SDS011;49845;47.130;142.766;2023-07-13T10:42:05;3.47;;;1.40;;
63699;SDS011;49845;47.130;142.766;2023-07-13T10:44:47;2.53;;;1.67;;
63699;SDS011;49845;47.130;142.766;2023-07-13T10:47:21;4.43;;;1.58;;
63699;SDS011;49845;47.130;142.766;2023-07-13T10:50:11;2.40;;;1.52;;
63699;SDS011;49845;47.130;142.766;2023-07-13T10:53:38;5.95;;;1.80;;
63699;SDS011;49845;47.130;142.766;2023-07-13T10:57:06;6.45;;;2.20;;
63699;SDS011;49845;47.130;142.766;2023-07-13T11:03:54;3.92;;;1.75;;
63699;SDS011;49845;47.130;142.766;2023-07-13T11:07:22;2.95;;;1.45;;
63699;SDS011;49845;47.130;142.766;2023-07-13T11:11:01;3.85;;;1.60;;
63699;SDS011;49845;47.130;142.766;2023-07-13T11:15:10;6.15;;;1.60;;
63699;SDS011;49845;47.130;142.766;2023-07-13T11:18:12;4.03;;;1.48;;
63699;SDS011;49845;47.130;142.766;2023-07-13T11:24:47;6.35;;;2.03;;
63699;SDS011;49845;47.130;142.766;2023-07-13T11:31:33;5.65;;;2.38;;
63699;SDS011;49845;47.130;142.766;2023-07-13T11:35:08;6.68;;;1.77;;
63699;SDS011;49845;47.130;142.766;2023-07-13T11:41:45;6.03;;;2.08;;
63699;SDS011;49845;47.130;142.766;2023-07-13T11:44:32;9.57;;;2.40;;
63699;SDS011;49845;47.130;142.766;2023-07-13T11:47:08;8.38;;;2.28;;
63699;SDS011;49845;47.130;142.766;2023-07-13T11:49:45;2.63;;;1.73;;
63699;SDS011;49845;47.130;142.766;2023-07-13T11:52:21;6.88;;;2.55;;
63699;SDS011;49845;47.130;142.766;2023-07-13T11:55:02;7.78;;;2.63;;
63699;SDS011;49845;47.130;142.766;2023-07-13T11:57:47;8.35;;;2.28;;
63699;SDS011;49845;47.130;142.766;2023-07-13T12:00:21;7.25;;;2.85;;
63699;SDS011;49845;47.130;142.766;2023-07-13T12:02:57;9.38;;;2.40;;
63699;SDS011;49845;47.130;142.766;2023-07-13T12:05:33;8.32;;;2.58;;
63699;SDS011;49845;47.130;142.766;2023-07-13T12:08:09;6.30;;;2.20;;
63699;SDS011;49845;47.130;142.766;2023-07-13T12:10:56;6.72;;;2.60;;
63699;SDS011;49845;47.130;142.766;2023-07-13T12:13:34;6.25;;;2.40;;
63699;SDS011;49845;47.130;142.766;2023-07-13T12:16:11;8.40;;;2.78;;
63699;SDS011;49845;47.130;142.766;2023-07-13T12:18:46;6.38;;;2.58;;
63699;SDS011;49845;47.130;142.766;2023-07-13T12:21:19;5.60;;;2.33;;
63699;SDS011;49845;47.130;142.766;2023-07-13T12:23:55;5.28;;;2.25;;
63699;SDS011;49845;47.130;142.766;2023-07-13T12:26:27;5.32;;;1.92;;
63699;SDS011;49845;47.130;142.766;2023-07-13T12:29:04;5.13;;;2.35;;
63699;SDS011;49845;47.130;142.766;2023-07-13T12:31:40;3.97;;;2.40;;
63699;SDS011;49845;47.130;142.766;2023-07-13T12:34:14;5.90;;;2.00;;
63699;SDS011;49845;47.130;142.766;2023-07-13T12:36:48;6.22;;;2.58;;
63699;SDS011;49845;47.130;142.766;2023-07-13T12:39:24;6.45;;;2.38;;
63699;SDS011;49845;47.130;142.766;2023-07-13T12:42:16;6.13;;;2.10;;
63699;SDS011;49845;47.130;142.766;2023-07-13T12:44:56;5.82;;;1.80;;
63699;SDS011;49845;47.130;142.766;2023-07-13T12:47:39;9.95;;;1.70;;
63699;SDS011;49845;47.130;142.766;2023-07-13T12:50:14;8.10;;;2.38;;
63699;SDS011;49845;47.130;142.766;2023-07-13T12:52:50;7.03;;;1.83;;
63699;SDS011;49845;47.130;142.766;2023-07-13T12:55:25;4.28;;;2.28;;
63699;SDS011;49845;47.130;142.766;2023-07-13T12:58:02;4.82;;;1.80;;
63699;SDS011;49845;47.130;142.766;2023-07-13T13:00:47;3.92;;;1.70;;
63699;SDS011;49845;47.130;142.766;2023-07-13T13:03:22;5.53;;;1.80;;
63699;SDS011;49845;47.130;142.766;2023-07-13T13:06:01;4.68;;;1.70;;
63699;SDS011;49845;47.130;142.766;2023-07-13T13:08:36;4.28;;;1.90;;
63699;SDS011;49845;47.130;142.766;2023-07-13T13:11:10;8.98;;;2.20;;
63699;SDS011;49845;47.130;142.766;2023-07-13T13:13:47;6.35;;;2.20;;
63699;SDS011;49845;47.130;142.766;2023-07-13T13:16:31;7.43;;;2.00;;
63699;SDS011;49845;47.130;142.766;2023-07-13T13:19:12;8.50;;;2.70;;
63699;SDS011;49845;47.130;142.766;2023-07-13T13:21:45;9.05;;;2.70;;
63699;SDS011;49845;47.130;142.766;2023-07-13T13:24:19;10.57;;;2.85;;
63699;SDS011;49845;47.130;142.766;2023-07-13T13:26:52;13.48;;;3.58;;
63699;SDS011;49845;47.130;142.766;2023-07-13T13:29:32;13.13;;;3.20;;
63699;SDS011;49845;47.130;142.766;2023-07-13T13:32:09;11.45;;;3.15;;
63699;SDS011;49845;47.130;142.766;2023-07-13T13:34:42;12.10;;;3.05;;
63699;SDS011;49845;47.130;142.766;2023-07-13T13:37:18;12.65;;;3.97;;
63699;SDS011;49845;47.130;142.766;2023-07-13T13:39:51;13.80;;;3.50;;
63699;SDS011;49845;47.130;142.766;2023-07-13T13:42:35;13.63;;;3.65;;
63699;SDS011;49845;47.130;142.766;2023-07-13T13:45:07;10.88;;;4.22;;
63699;SDS011;49845;47.130;142.766;2023-07-13T13:47:42;11.60;;;3.53;;
63699;SDS011;49845;47.130;142.766;2023-07-13T13:50:17;10.82;;;3.15;;
63699;SDS011;49845;47.130;142.766;2023-07-13T13:52:51;12.77;;;3.13;;
63699;SDS011;49845;47.130;142.766;2023-07-13T13:55:23;8.27;;;3.40;;
63699;SDS011;49845;47.130;142.766;2023-07-13T13:57:56;9.95;;;3.47;;
63699;SDS011;49845;47.130;142.766;2023-07-13T14:00:28;6.72;;;3.10;;
63699;SDS011;49845;47.130;142.766;2023-07-13T14:03:02;9.45;;;2.35;;
63699;SDS011;49845;47.130;142.766;2023-07-13T14:05:35;11.65;;;3.10;;
63699;SDS011;49845;47.130;142.766;2023-07-13T14:08:09;11.30;;;2.90;;
63699;SDS011;49845;47.130;142.766;2023-07-13T14:10:44;8.32;;;2.42;;
63699;SDS011;49845;47.130;142.766;2023-07-13T14:13:17;7.90;;;2.75;;
63699;SDS011;49845;47.130;142.766;2023-07-13T14:15:50;6.00;;;2.65;;
63699;SDS011;49845;47.130;142.766;2023-07-13T14:18:25;3.70;;;1.80;;
63699;SDS011;49845;47.130;142.766;2023-07-13T14:20:56;10.80;;;2.05;;
63699;SDS011;49845;47.130;142.766;2023-07-13T14:23:28;3.85;;;1.55;;
63699;SDS011;49845;47.130;142.766;2023-07-13T14:26:01;7.00;;;2.42;;
63699;SDS011;49845;47.130;142.766;2023-07-13T14:28:36;8.00;;;2.25;;
63699;SDS011;49845;47.130;142.766;2023-07-13T14:31:15;6.18;;;2.38;;
63699;SDS011;49845;47.130;142.766;2023-07-13T14:33:49;3.72;;;1.70;;
63699;SDS011;49845;47.130;142.766;2023-07-13T14:36:23;5.55;;;2.15;;
63699;SDS011;49845;47.130;142.766;2023-07-13T14:38:59;5.05;;;2.40;;
63699;SDS011;49845;47.130;142.766;2023-07-13T14:41:37;3.97;;;2.17;;
63699;SDS011;49845;47.130;142.766;2023-07-13T14:44:11;5.72;;;2.03;;
63699;SDS011;49845;47.130;142.766;2023-07-13T14:46:50;5.20;;;2.53;;
63699;SDS011;49845;47.130;142.766;2023-07-13T14:49:28;6.00;;;1.95;;
63699;SDS011;49845;47.130;142.766;2023-07-13T14:52:05;7.75;;;2.30;;
63699;SDS011;49845;47.130;142.766;2023-07-13T14:54:41;8.38;;;2.30;;
63699;SDS011;49845;47.130;142.766;2023-07-13T14:57:15;8.13;;;2.10;;
63699;SDS011;49845;47.130;142.766;2023-07-13T14:59:48;5.10;;;2.25;;
63699;SDS011;49845;47.130;142.766;2023-07-13T15:02:22;8.10;;;2.67;;
63699;SDS011;49845;47.130;142.766;2023-07-13T15:04:59;6.43;;;2.15;;
63699;SDS011;49845;47.130;142.766;2023-07-13T15:07:31;6.20;;;3.33;;
63699;SDS011;49845;47.130;142.766;2023-07-13T15:10:08;7.72;;;2.45;;
63699;SDS011;49845;47.130;142.766;2023-07-13T15:12:44;9.15;;;2.53;;
63699;SDS011;49845;47.130;142.766;2023-07-13T15:15:20;6.20;;;2.38;;
63699;SDS011;49845;47.130;142.766;2023-07-13T15:17:52;10.40;;;2.05;;
63699;SDS011;49845;47.130;142.766;2023-07-13T15:20:50;8.50;;;2.30;;
63699;SDS011;49845;47.130;142.766;2023-07-13T15:23:26;11.85;;;2.45;;
63699;SDS011;49845;47.130;142.766;2023-07-13T15:25:58;9.07;;;2.40;;
63699;SDS011;49845;47.130;142.766;2023-07-13T15:28:32;5.57;;;2.72;;
63699;SDS011;49845;47.130;142.766;2023-07-13T15:31:05;6.80;;;2.17;;
63699;SDS011;49845;47.130;142.766;2023-07-13T15:33:49;8.27;;;2.75;;
63699;SDS011;49845;47.130;142.766;2023-07-13T15:36:29;6.60;;;2.60;;
63699;SDS011;49845;47.130;142.766;2023-07-13T15:39:00;9.15;;;2.72;;
63699;SDS011;49845;47.130;142.766;2023-07-13T15:41:32;7.40;;;2.30;;
63699;SDS011;49845;47.130;142.766;2023-07-13T15:44:24;6.30;;;2.45;;
63699;SDS011;49845;47.130;142.766;2023-07-13T15:47:02;5.38;;;2.00;;
63699;SDS011;49845;47.130;142.766;2023-07-13T15:49:35;4.97;;;1.83;;
63699;SDS011;49845;47.130;142.766;2023-07-13T15:55:03;7.35;;;2.20;;
63699;SDS011;49845;47.130;142.766;2023-07-13T15:57:35;4.15;;;1.90;;
63699;SDS011;49845;47.130;142.766;2023-07-13T16:02:50;4.80;;;1.83;;
63699;SDS011;49845;47.130;142.766;2023-07-13T16:05:23;6.95;;;1.67;;
63699;SDS011;49845;47.130;142.766;2023-07-13T16:07:58;5.10;;;2.10;;
63699;SDS011;49845;47.130;142.766;2023-07-13T16:10:45;4.88;;;2.08;;
63699;SDS011;49845;47.130;142.766;2023-07-13T16:13:18;5.93;;;1.58;;
63699;SDS011;49845;47.130;142.766;2023-07-13T16:15:57;4.40;;;1.60;;